Date,TemperatureHighF,TemperatureAvgF,TemperatureLowF,DewpointHighF,DewpointAvgF,DewpointLowF,HumidityHigh,HumidityAvg,HumidityLow,PressureMaxIn,PressureMinIn,WindSpeedMaxMPH,WindSpeedAvgMPH,GustSpeedMaxMPH,PrecipitationSumIn
2013-10-1,66.0,60.1,57.0,57.0,55.8,54.0,92,85,71,0.00,40.00,2,1,3,0.00
2013-10-2,81.0,64.6,50.0,59.0,55.3,49.0,96,75,41,0.00,40.00,8,2,11,0.00
2013-10-3,77.0,64.0,54.0,62.0,57.6,53.0,96,81,52,0.00,40.00,4,2,7,0.00
2013-10-4,84.0,67.4,55.0,64.0,59.6,54.0,97,79,41,0.00,40.00,7,2,9,0.00
2013-10-5,84.0,69.1,56.0,65.0,60.7,56.0,97,78,45,0.00,40.00,7,2,10,0.00
2013-10-6,80.0,68.2,56.0,65.0,60.0,56.0,97,78,47,0.00,40.00,15,4,20,0.00
2013-10-7,69.0,63.1,52.0,66.0,55.6,44.0,98,78,52,0.00,40.00,13,6,20,1.74
2013-10-8,65.0,53.5,45.0,47.0,44.1,42.0,92,73,46,0.00,40.00,9,3,13,0.07
2013-10-9,64.0,53.0,45.0,49.0,46.0,43.0,96,79,48,0.00,40.00,9,3,13,0.00
2013-10-10,65.0,56.7,50.0,59.0,53.6,45.0,100,90,73,0.00,40.00,8,5,11,0.54
2013-10-11,72.0,62.7,57.0,63.0,57.9,55.0,99,85,68,0.00,40.00,8,2,12,0.04
2013-10-12,68.0,62.5,59.0,63.0,60.6,58.0,100,94,82,0.00,40.00,3,0,8,0.27
2013-10-13,67.0,61.4,59.0,62.0,58.3,-99.9,100,93,83,0.00,40.00,8,3,12,0.26
2013-10-14,67.0,61.3,58.0,60.0,58.8,57.0,100,92,76,0.00,40.00,5,2,7,0.40
2013-10-15,69.0,60.1,53.0,58.0,55.3,53.0,100,86,61,0.00,40.00,7,2,9,0.02
2013-10-16,70.0,61.0,51.0,60.0,56.1,51.0,100,85,63,0.00,40.00,9,3,12,0.00
2013-10-17,67.0,62.8,58.0,64.0,60.2,51.0,99,92,74,0.00,40.00,13,4,15,0.06
2013-10-18,65.0,57.2,50.0,51.0,44.5,40.0,93,64,44,0.00,40.00,13,5,16,0.02
2013-10-19,61.0,53.8,46.0,56.0,49.8,45.0,99,87,64,0.00,40.00,11,3,14,0.00
2013-10-20,64.0,50.5,40.0,45.0,35.9,-99.9,94,61,36,0.00,40.00,10,4,16,0.00
2013-10-21,66.0,51.2,36.0,50.0,43.7,36.0,100,78,49,0.00,40.00,11,4,15,0.00
2013-10-22,65.0,58.7,51.0,50.0,47.6,46.0,90,68,51,0.00,40.00,11,5,16,0.04
2013-10-23,57.0,48.7,43.0,49.0,42.6,31.0,100,81,50,0.00,40.00,12,4,19,0.18
2013-10-24,47.0,42.4,32.0,33.0,31.5,29.0,94,66,53,0.00,40.00,12,4,16,0.02
2013-10-25,48.0,38.8,30.0,31.0,28.2,25.0,94,68,41,0.00,40.00,14,5,19,0.01
2013-10-26,57.0,41.0,24.0,33.0,27.1,21.0,98,65,25,0.00,40.00,13,4,19,0.00
2013-10-27,65.0,53.1,43.0,41.0,35.0,-99.9,84,54,34,0.00,40.00,12,4,22,0.00
2013-10-28,63.0,49.4,36.0,54.0,42.7,-99.9,98,82,58,0.00,40.00,7,2,8,0.02
2013-10-29,67.0,58.9,50.0,55.0,52.6,50.0,100,81,57,0.00,40.00,7,2,9,0.06
2013-10-30,69.0,60.2,54.0,61.0,55.9,51.0,100,86,70,0.00,40.00,6,2,8,0.27
2013-10-31,69.0,62.8,57.0,60.0,57.9,56.0,100,85,62,0.00,40.00,19,7,23,0.04